CST,Max TemperatureF,Mean TemperatureF,Min TemperatureF,Max Dew PointF,MeanDew PointF,Min DewpointF,Max Humidity, Mean Humidity, Min Humidity, Max Sea Level PressureIn, Mean Sea Level PressureIn, Min Sea Level PressureIn, Max VisibilityMiles, Mean VisibilityMiles, Min VisibilityMiles, Max Wind SpeedMPH, Mean Wind SpeedMPH, Max Gust SpeedMPH,PrecipitationIn, CloudCover, Events, WindDirDegrees
2011-11-1,62,52,42,34,26,21,53,40,22,29.94,29.87,29.82,10,10,7,16,12,20,0.00,0,,191
2011-11-2,46,42,37,37,31,25,81,62,46,30.21,30.13,30.00,10,10,7,23,13,33,0.07,6,Rain,354
2011-11-3,51,38,26,27,20,12,80,53,22,30.29,30.24,30.18,10,10,7,16,9,17,0.00,0,,359
2011-11-4,53,38,24,30,22,12,74,56,19,30.25,30.18,30.04,10,10,10,21,9,28,0.00,0,,157
2011-11-5,57,47,37,39,35,28,87,69,47,30.03,29.85,29.69,10,9,5,32,21,40,0.00,0,,154
2011-11-6,53,44,35,41,30,16,81,55,22,30.02,29.76,29.59,10,10,7,36,20,39,0.00,0,Rain,202
2011-11-7,55,40,26,21,15,5,74,40,13,30.22,30.15,30.05,10,10,5,10,6,,0.00,0,,284
2011-11-8,46,42,39,23,20,18,49,40,32,30.15,30.10,30.06,10,10,10,16,9,18,0.00,7,,24
2011-11-9,48,42,35,19,15,7,48,36,22,30.09,30.05,30.03,10,10,10,24,13,36,0.00,1,,323
2011-11-10,41,34,26,19,14,9,69,49,31,30.12,30.08,30.03,10,10,10,23,13,30,0.00,0,,288
2011-11-11,60,43,26,19,14,9,59,37,14,29.97,29.72,29.63,10,10,10,22,10,20,0.00,0,,199
2011-11-12,57,44,30,32,25,16,65,52,33,29.64,29.53,29.37,10,10,10,22,12,26,0.00,0,,174
2011-11-13,48,45,42,37,32,25,81,60,40,29.48,29.30,29.19,10,10,7,15,10,23,0.02,4,Rain,255
2011-11-14,55,42,30,32,22,10,86,51,18,29.64,29.53,29.45,10,10,10,23,10,29,0.00,1,,223
2011-11-15,53,40,26,27,20,12,65,43,28,29.97,29.71,29.53,10,10,10,23,12,30,0.00,1,Rain,270
2011-11-16,42,27,12,16,9,1,85,49,18,30.20,30.11,30.02,10,10,10,26,11,34,0.00,0,,268
2011-11-17,39,24,10,10,6,1,68,49,26,30.21,30.15,29.97,10,10,10,15,7,,0.00,0,,212
2011-11-18,55,44,32,28,24,19,70,54,33,29.81,29.69,29.60,10,10,10,24,18,33,0.00,0,,196
2011-11-19,33,28,23,34,25,19,100,85,69,30.04,29.74,29.63,10,8,1,23,11,32,0.05,6,Rain,2
2011-11-20,26,18,10,21,15,9,93,86,74,30.33,30.27,30.15,10,10,10,14,7,18,0.00,3,,13
2011-11-21,37,27,17,34,26,18,100,91,81,30.28,30.22,30.13,7,6,4,9,3,,0.00,5,,121
2011-11-22,42,38,33,37,35,30,93,86,81,30.15,30.07,30.00,10,5,2,9,5,,0.00,8,,85
2011-11-23,51,42,33,37,36,32,100,83,58,30.15,30.11,30.05,7,4,2,17,9,20,0.00,4,,193
2011-11-24,64,48,33,43,37,32,100,73,37,30.04,29.90,29.78,10,6,2,28,16,34,0.00,0,,180
2011-11-25,53,48,42,48,44,39,100,84,71,29.75,29.69,29.63,10,6,3,21,16,24,0.00,5,,188
2011-11-26,50,42,35,50,36,27,100,85,70,30.09,29.89,29.65,10,8,2,29,17,40,0.02,7,Rain,308
2011-11-27,35,32,30,27,24,23,80,72,65,30.20,30.16,30.09,10,10,10,29,17,37,0.00,8,,339
2011-11-28,42,28,15,27,23,16,100,83,53,30.17,30.11,30.05,10,9,5,20,7,21,0.00,1,,190
2011-11-29,39,31,23,28,17,5,87,60,24,30.33,30.24,30.18,10,10,10,17,12,22,0.00,0,,339
2011-11-30,51,33,15,19,12,7,73,47,24,30.13,29.97,29.85,10,10,10,26,11,29,0.00,0,,194